Terminal Aerodrome Forecast
Issued by NWS Jackson, MS

Home | Current Version | Previous Version | Text Only | Print | Product List | Glossary On
Versions: 1 2 3 4 5 6 7 8 9 10 11 12
000
FTUS44 KJAN 031741
TAFHBG
TAF
KHBG 031741Z 0318/0418 14006KT P6SM SKC
     FM040000 VRB03KT P6SM SKC
     FM041000 00000KT 3SM BR SCT010
     FM041500 13009KT P6SM SCT050=

USA.gov is the U.S. government's official web portal to all federal, state and local government web resources and services.